createdAt,value
2018-07-16T00:00:06.430Z,951.16
2018-07-16T00:01:06.405Z,951.15
2018-07-16T00:02:06.385Z,951.13
2018-07-16T00:03:06.383Z,951.09
2018-07-16T00:04:06.375Z,951.11
2018-07-16T00:05:06.378Z,951.12
2018-07-16T00:06:06.362Z,951.09
2018-07-16T00:07:06.331Z,951.13
2018-07-16T00:08:06.323Z,951.10
2018-07-16T00:09:06.311Z,951.09
2018-07-16T00:10:06.304Z,951.08
2018-07-16T00:11:06.300Z,951.02
2018-07-16T00:12:06.292Z,951.01
2018-07-16T00:13:06.268Z,951.03
2018-07-16T00:14:06.257Z,950.98
2018-07-16T00:15:06.245Z,951.04
2018-07-16T00:16:06.268Z,951.03
2018-07-16T00:17:06.220Z,951.03
2018-07-16T00:18:06.226Z,951.01
2018-07-16T00:19:06.916Z,951.01
2018-07-16T00:20:06.188Z,950.97
2018-07-16T00:21:06.173Z,951.00
2018-07-16T00:22:06.188Z,950.98
2018-07-16T00:23:06.156Z,950.94
2018-07-16T00:24:06.161Z,950.96
2018-07-16T00:25:06.134Z,950.93
2018-07-16T00:26:06.117Z,950.94
2018-07-16T00:27:06.110Z,950.96
2018-07-16T00:28:06.108Z,950.96
2018-07-16T00:29:06.086Z,950.96
2018-07-16T00:30:06.088Z,950.92
2018-07-16T00:31:06.065Z,950.94
2018-07-16T00:32:06.056Z,950.91
2018-07-16T00:33:06.063Z,950.93
2018-07-16T00:34:06.033Z,950.90
2018-07-16T00:35:06.017Z,950.93
2018-07-16T00:36:06.027Z,950.94
2018-07-16T00:37:06.004Z,950.92
2018-07-16T00:38:06.920Z,950.98
2018-07-16T00:39:06.000Z,950.93
2018-07-16T00:40:05.964Z,950.95
2018-07-16T00:41:05.963Z,950.95
2018-07-16T00:42:05.942Z,951.01
2018-07-16T00:43:05.930Z,951.01
2018-07-16T00:44:05.918Z,950.98
2018-07-16T00:45:05.915Z,951.02
2018-07-16T00:46:05.897Z,951.06
2018-07-16T00:47:05.898Z,951.03
2018-07-16T00:48:05.873Z,951.06
2018-07-16T00:49:05.865Z,951.07
2018-07-16T00:50:05.873Z,951.07
2018-07-16T00:51:05.849Z,951.10
2018-07-16T00:52:05.823Z,951.08
2018-07-16T00:53:05.833Z,951.08
2018-07-16T00:54:05.809Z,951.06
2018-07-16T00:55:05.797Z,951.10
2018-07-16T00:56:05.810Z,951.07
2018-07-16T00:57:05.771Z,951.05
2018-07-16T00:58:05.765Z,951.04
2018-07-16T00:59:05.766Z,951.03
2018-07-16T01:00:05.740Z,951.00
2018-07-16T01:01:05.732Z,951.00
2018-07-16T01:02:05.737Z,951.00
2018-07-16T01:03:05.707Z,950.98
2018-07-16T01:04:05.697Z,950.95
2018-07-16T01:05:05.702Z,951.01
2018-07-16T01:06:05.674Z,950.98
2018-07-16T01:07:05.665Z,951.02
2018-07-16T01:08:05.660Z,951.04
2018-07-16T01:09:05.650Z,951.02
2018-07-16T01:10:05.631Z,951.05
2018-07-16T01:11:05.628Z,951.06
2018-07-16T01:12:05.605Z,951.04
2018-07-16T01:13:05.608Z,951.09
2018-07-16T01:14:05.582Z,951.06
2018-07-16T01:15:05.595Z,951.00
2018-07-16T01:16:05.559Z,951.01
2018-07-16T01:17:05.565Z,950.98
2018-07-16T01:18:05.538Z,950.98
2018-07-16T01:19:05.522Z,950.92
2018-07-16T01:20:05.517Z,950.94
2018-07-16T01:21:05.528Z,950.90
2018-07-16T01:22:05.493Z,950.94
2018-07-16T01:23:05.502Z,950.95
2018-07-16T01:24:05.467Z,950.98
2018-07-16T01:25:05.465Z,950.95
2018-07-16T01:26:05.450Z,950.95
2018-07-16T01:27:05.447Z,950.96
2018-07-16T01:28:05.428Z,950.94
2018-07-16T01:29:05.424Z,950.94
2018-07-16T01:30:05.404Z,950.96
2018-07-16T01:31:05.388Z,950.95
2018-07-16T01:32:05.396Z,950.95
2018-07-16T01:33:05.370Z,950.98
2018-07-16T01:34:05.357Z,950.97
2018-07-16T01:35:05.361Z,950.97
2018-07-16T01:36:05.336Z,950.94
2018-07-16T01:37:05.327Z,950.93
2018-07-16T01:38:05.334Z,950.89
2018-07-16T01:39:05.303Z,950.91
2018-07-16T01:40:05.289Z,950.94
2018-07-16T01:41:05.296Z,950.92
2018-07-16T01:42:05.271Z,950.93
2018-07-16T01:43:05.256Z,950.90
2018-07-16T01:44:05.277Z,950.92
2018-07-16T01:45:05.235Z,950.90
2018-07-16T01:46:05.222Z,950.91
2018-07-16T01:47:05.252Z,950.90
2018-07-16T01:48:05.198Z,950.92
2018-07-16T01:49:05.191Z,950.93
2018-07-16T01:50:05.184Z,950.91
2018-07-16T01:51:05.166Z,950.95
2018-07-16T01:52:05.159Z,950.91
2018-07-16T01:53:05.154Z,950.89
2018-07-16T01:54:05.131Z,950.89
2018-07-16T01:55:05.144Z,950.88
2018-07-16T01:56:05.113Z,950.89
2018-07-16T01:57:05.103Z,950.86
2018-07-16T01:58:05.087Z,950.88
2018-07-16T01:59:05.092Z,950.87
2018-07-16T02:00:05.072Z,950.83
2018-07-16T02:01:05.075Z,950.82
2018-07-16T02:02:05.048Z,950.84
2018-07-16T02:03:05.038Z,950.82
2018-07-16T02:04:05.018Z,950.84
2018-07-16T02:05:05.025Z,950.82
2018-07-16T02:06:04.995Z,950.82
2018-07-16T02:07:05.002Z,950.75
2018-07-16T02:08:04.978Z,950.78
2018-07-16T02:09:04.964Z,950.82
2018-07-16T02:10:04.958Z,950.81
2018-07-16T02:11:04.953Z,950.78
2018-07-16T02:12:04.958Z,950.79
2018-07-16T02:13:04.919Z,950.78
2018-07-16T02:14:04.909Z,950.77
2018-07-16T02:15:04.898Z,950.80
2018-07-16T02:16:04.883Z,950.74
2018-07-16T02:17:04.892Z,950.76
2018-07-16T02:18:04.892Z,950.77
2018-07-16T02:19:04.858Z,950.73
2018-07-16T02:20:04.847Z,950.73
2018-07-16T02:21:04.830Z,950.71
2018-07-16T02:22:04.820Z,950.69
2018-07-16T02:23:04.819Z,950.71
2018-07-16T02:24:04.802Z,950.67
2018-07-16T02:25:04.789Z,950.68
2018-07-16T02:26:04.772Z,950.68
2018-07-16T02:27:04.769Z,950.68
2018-07-16T02:28:04.751Z,950.67
2018-07-16T02:29:04.788Z,950.69
2018-07-16T02:30:04.729Z,950.66
2018-07-16T02:31:04.720Z,950.67
2018-07-16T02:32:04.711Z,950.59
2018-07-16T02:33:04.699Z,950.65
2018-07-16T02:34:04.682Z,950.53
2018-07-16T02:35:04.723Z,950.56
2018-07-16T02:36:04.663Z,950.60
2018-07-16T02:37:04.651Z,950.61
2018-07-16T02:38:04.658Z,950.56
2018-07-16T02:39:04.627Z,950.59
2018-07-16T02:40:04.622Z,950.57
2018-07-16T02:41:04.637Z,950.53
2018-07-16T02:42:04.600Z,950.53
2018-07-16T02:43:04.592Z,950.54
2018-07-16T02:44:04.573Z,950.49
2018-07-16T02:45:04.559Z,950.49
2018-07-16T02:46:04.553Z,950.48
2018-07-16T02:47:04.561Z,950.49
2018-07-16T02:48:04.533Z,950.47
2018-07-16T02:49:04.519Z,950.44
2018-07-16T02:50:04.506Z,950.49
2018-07-16T02:51:04.499Z,950.49
2018-07-16T02:52:04.504Z,950.47
2018-07-16T02:53:04.482Z,950.50
2018-07-16T02:54:04.463Z,950.46
2018-07-16T02:55:04.454Z,950.51
2018-07-16T02:56:04.442Z,950.51
2018-07-16T02:57:04.424Z,950.47
2018-07-16T02:58:04.433Z,950.44
2018-07-16T02:59:04.423Z,950.47
2018-07-16T03:00:04.397Z,950.48
2018-07-16T03:01:04.389Z,950.47
2018-07-16T03:02:04.415Z,950.47
2018-07-16T03:03:04.361Z,950.47
2018-07-16T03:04:04.374Z,950.47
2018-07-16T03:05:04.342Z,950.48
2018-07-16T03:06:04.324Z,950.49
2018-07-16T03:07:04.318Z,950.53
2018-07-16T03:08:04.308Z,950.56
2018-07-16T03:09:04.316Z,950.56
2018-07-16T03:10:04.305Z,950.56
2018-07-16T03:11:04.273Z,950.58
2018-07-16T03:12:04.264Z,950.59
2018-07-16T03:13:04.251Z,950.60
2018-07-16T03:14:04.241Z,950.60
2018-07-16T03:15:04.271Z,950.64
2018-07-16T03:16:04.238Z,950.63
2018-07-16T03:17:04.209Z,950.64
2018-07-16T03:18:04.282Z,950.65
2018-07-16T03:19:04.181Z,950.66
2018-07-16T03:20:04.236Z,950.64
2018-07-16T03:21:04.174Z,950.68
2018-07-16T03:22:04.178Z,950.69
2018-07-16T03:23:04.136Z,950.74
2018-07-16T03:24:04.128Z,950.75
2018-07-16T03:25:04.120Z,950.74
2018-07-16T03:26:04.137Z,950.76
2018-07-16T03:27:04.093Z,950.76
2018-07-16T03:28:04.097Z,950.79
2018-07-16T03:29:04.072Z,950.78
2018-07-16T03:30:04.064Z,950.76
2018-07-16T03:31:04.051Z,950.79
2018-07-16T03:32:04.066Z,950.77
2018-07-16T03:33:04.024Z,950.78
2018-07-16T03:34:04.928Z,950.74
2018-07-16T03:35:04.000Z,950.73
2018-07-16T03:36:03.995Z,950.73
2018-07-16T03:37:03.979Z,950.73
2018-07-16T03:38:03.983Z,950.72
2018-07-16T03:39:03.968Z,950.73
2018-07-16T03:40:03.981Z,950.74
2018-07-16T03:41:03.936Z,950.71
2018-07-16T03:42:03.922Z,950.70
2018-07-16T03:43:03.918Z,950.77
2018-07-16T03:44:03.913Z,950.79
2018-07-16T03:45:03.890Z,950.79
2018-07-16T03:46:03.904Z,950.79
2018-07-16T03:47:03.875Z,950.83
2018-07-16T03:48:03.893Z,950.79
2018-07-16T03:49:03.869Z,950.84
2018-07-16T03:50:03.834Z,950.79
2018-07-16T03:51:03.818Z,950.82
2018-07-16T03:52:03.830Z,950.83
2018-07-16T03:53:03.802Z,950.81
2018-07-16T03:54:03.785Z,950.84
2018-07-16T03:55:03.800Z,950.84
2018-07-16T03:56:03.778Z,950.87
2018-07-16T03:57:03.758Z,950.85
2018-07-16T03:58:03.762Z,950.84
2018-07-16T03:59:03.743Z,950.86
2018-07-16T04:00:03.730Z,950.81
2018-07-16T04:01:03.738Z,950.80
2018-07-16T04:02:03.706Z,950.81
2018-07-16T04:03:03.699Z,950.76
2018-07-16T04:04:03.716Z,950.73
2018-07-16T04:05:03.668Z,950.70
2018-07-16T04:06:03.665Z,950.74
2018-07-16T04:07:03.652Z,950.71
2018-07-16T04:08:03.635Z,950.67
2018-07-16T04:09:03.619Z,950.71
2018-07-16T04:10:03.624Z,950.67
2018-07-16T04:11:03.623Z,950.70
2018-07-16T04:12:03.590Z,950.65
2018-07-16T04:13:03.583Z,950.67
2018-07-16T04:14:03.565Z,950.66
2018-07-16T04:15:03.558Z,950.63
2018-07-16T04:16:03.551Z,950.66
2018-07-16T04:17:03.566Z,950.62
2018-07-16T04:18:03.525Z,950.67
2018-07-16T04:19:03.509Z,950.64
2018-07-16T04:20:03.499Z,950.63
2018-07-16T04:21:03.487Z,950.64
2018-07-16T04:22:03.491Z,950.68
2018-07-16T04:23:03.474Z,950.69
2018-07-16T04:24:03.454Z,950.63
2018-07-16T04:25:03.443Z,950.68
2018-07-16T04:26:03.429Z,950.66
2018-07-16T04:27:03.425Z,950.70
2018-07-16T04:28:03.464Z,950.63
2018-07-16T04:29:03.401Z,950.61
2018-07-16T04:30:03.389Z,950.67
2018-07-16T04:31:03.480Z,950.68
2018-07-16T04:32:03.366Z,950.63
2018-07-16T04:33:03.354Z,950.60
2018-07-16T04:34:03.386Z,950.61
2018-07-16T04:35:03.329Z,950.59
2018-07-16T04:36:03.320Z,950.61
2018-07-16T04:37:03.305Z,950.58
2018-07-16T04:38:03.301Z,950.63
2018-07-16T04:39:03.286Z,950.63
2018-07-16T04:40:03.292Z,950.61
2018-07-16T04:41:03.262Z,950.59
2018-07-16T04:42:03.249Z,950.62
2018-07-16T04:43:03.245Z,950.56
2018-07-16T04:44:03.232Z,950.56
2018-07-16T04:45:03.247Z,950.57
2018-07-16T04:46:03.228Z,950.57
2018-07-16T04:47:03.191Z,950.50
2018-07-16T04:48:03.189Z,950.50
2018-07-16T04:49:03.170Z,950.51
2018-07-16T04:50:03.155Z,950.45
2018-07-16T04:51:03.192Z,950.41
2018-07-16T04:52:03.161Z,950.45
2018-07-16T04:53:03.124Z,950.47
2018-07-16T04:54:03.122Z,950.43
2018-07-16T04:55:03.107Z,950.47
2018-07-16T04:56:03.140Z,950.47
2018-07-16T04:57:03.105Z,950.52
2018-07-16T04:58:03.085Z,950.48
2018-07-16T04:59:03.065Z,950.49
2018-07-16T05:00:03.048Z,950.54
2018-07-16T05:01:03.040Z,950.56
2018-07-16T05:02:03.033Z,950.62
2018-07-16T05:03:03.028Z,950.58
2018-07-16T05:04:03.016Z,950.62
2018-07-16T05:05:02.991Z,950.57
2018-07-16T05:06:02.984Z,950.55
2018-07-16T05:07:02.969Z,950.52
2018-07-16T05:08:02.970Z,950.52
2018-07-16T05:09:02.943Z,950.48
2018-07-16T05:10:02.959Z,950.50
2018-07-16T05:11:02.926Z,950.51
2018-07-16T05:12:02.914Z,950.49
2018-07-16T05:13:02.912Z,950.53
2018-07-16T05:14:02.896Z,950.50
2018-07-16T05:15:02.887Z,950.50
2018-07-16T05:16:03.436Z,950.50
2018-07-16T05:17:02.859Z,950.46
2018-07-16T05:18:02.951Z,950.48
2018-07-16T05:19:02.839Z,950.52
2018-07-16T05:20:02.820Z,950.54
2018-07-16T05:21:02.815Z,950.55
2018-07-16T05:22:02.813Z,950.53
2018-07-16T05:23:02.789Z,950.53
2018-07-16T05:24:02.854Z,950.50
2018-07-16T05:25:02.772Z,950.58
2018-07-16T05:26:02.757Z,950.57
2018-07-16T05:27:02.750Z,950.57
2018-07-16T05:28:02.755Z,950.53
2018-07-16T05:29:02.719Z,950.49
2018-07-16T05:30:02.726Z,950.56
2018-07-16T05:31:02.701Z,950.60
2018-07-16T05:32:02.753Z,950.56
2018-07-16T05:33:02.681Z,950.56
2018-07-16T05:34:02.679Z,950.61
2018-07-16T05:35:02.666Z,950.59
2018-07-16T05:36:02.649Z,950.52
2018-07-16T05:37:02.637Z,950.52
2018-07-16T05:38:02.686Z,950.54
2018-07-16T05:39:02.608Z,950.54
2018-07-16T05:40:02.644Z,950.57
2018-07-16T05:41:02.586Z,950.57
2018-07-16T05:42:02.576Z,950.54
2018-07-16T05:43:02.562Z,950.55
2018-07-16T05:44:02.552Z,950.57
2018-07-16T05:45:02.543Z,950.60
2018-07-16T05:46:02.679Z,950.60
2018-07-16T05:47:02.524Z,950.62
2018-07-16T05:48:02.511Z,950.61
2018-07-16T05:49:02.500Z,950.63
2018-07-16T05:50:02.491Z,950.58
2018-07-16T05:51:02.474Z,950.59
2018-07-16T05:52:02.501Z,950.60
2018-07-16T05:53:02.461Z,950.54
2018-07-16T05:54:02.441Z,950.53
2018-07-16T05:55:02.441Z,950.55
2018-07-16T05:56:02.426Z,950.48
2018-07-16T05:57:02.430Z,950.51
2018-07-16T05:58:02.416Z,950.49
2018-07-16T05:59:02.390Z,950.51
2018-07-16T06:00:02.372Z,950.55
2018-07-16T06:01:02.366Z,950.52
2018-07-16T06:02:02.355Z,950.52
2018-07-16T06:03:02.372Z,950.57
2018-07-16T06:04:02.343Z,950.54
2018-07-16T06:05:02.321Z,950.56
2018-07-16T06:06:02.311Z,950.54
2018-07-16T06:07:02.301Z,950.55
2018-07-16T06:08:02.283Z,950.56
2018-07-16T06:09:02.317Z,950.49
2018-07-16T06:10:02.278Z,950.51
2018-07-16T06:11:02.259Z,950.50
2018-07-16T06:12:02.245Z,950.53
2018-07-16T06:13:02.235Z,950.53
2018-07-16T06:14:02.215Z,950.54
2018-07-16T06:15:02.222Z,950.53
2018-07-16T06:16:02.212Z,950.53
2018-07-16T06:17:02.193Z,950.55
2018-07-16T06:18:02.177Z,950.57
2018-07-16T06:19:02.201Z,950.54
2018-07-16T06:20:02.155Z,950.57
2018-07-16T06:21:02.143Z,950.56
2018-07-16T06:22:02.144Z,950.51
2018-07-16T06:23:02.118Z,950.49
2018-07-16T06:24:02.125Z,950.54
2018-07-16T06:25:02.130Z,950.47
2018-07-16T06:26:02.093Z,950.45
2018-07-16T06:27:02.074Z,950.50
2018-07-16T06:28:02.077Z,950.47
2018-07-16T06:29:02.055Z,950.44
2018-07-16T06:30:02.044Z,950.48
2018-07-16T06:31:02.057Z,950.43
2018-07-16T06:32:02.015Z,950.45
2018-07-16T06:33:02.008Z,950.49
2018-07-16T06:34:02.013Z,950.50
2018-07-16T06:35:01.991Z,950.47
2018-07-16T06:36:01.978Z,950.48
2018-07-16T06:37:01.974Z,950.46
2018-07-16T06:38:02.002Z,950.46
2018-07-16T06:39:01.940Z,950.46
2018-07-16T06:40:01.997Z,950.48
2018-07-16T06:41:02.377Z,950.47
2018-07-16T06:42:01.921Z,950.47
2018-07-16T06:43:01.895Z,950.49
2018-07-16T06:44:01.882Z,950.49
2018-07-16T06:45:01.877Z,950.48
2018-07-16T06:46:01.877Z,950.49
2018-07-16T06:47:01.880Z,950.53
2018-07-16T06:48:01.837Z,950.51
2018-07-16T06:49:01.823Z,950.50
2018-07-16T06:50:01.819Z,950.51
2018-07-16T06:51:01.810Z,950.50
2018-07-16T06:52:01.806Z,950.54
2018-07-16T06:53:01.804Z,950.55
2018-07-16T06:54:01.781Z,950.48
2018-07-16T06:55:01.794Z,950.43
2018-07-16T06:56:01.755Z,950.47
2018-07-16T06:57:01.739Z,950.47
2018-07-16T06:58:01.764Z,950.44
2018-07-16T06:59:01.715Z,950.48
2018-07-16T07:00:01.705Z,950.45
2018-07-16T07:01:01.692Z,950.45
2018-07-16T07:02:01.685Z,950.47
2018-07-16T07:03:01.672Z,950.46
2018-07-16T07:04:01.702Z,950.45
2018-07-16T07:05:01.649Z,950.44
2018-07-16T07:06:01.636Z,950.41
2018-07-16T07:07:01.626Z,950.43
2018-07-16T07:08:01.610Z,950.45
2018-07-16T07:09:01.630Z,950.42
2018-07-16T07:10:01.651Z,950.44
2018-07-16T07:11:01.579Z,950.44
2018-07-16T07:12:01.574Z,950.40
2018-07-16T07:13:01.552Z,950.44
2018-07-16T07:14:01.592Z,950.44
2018-07-16T07:15:01.543Z,950.43
2018-07-16T07:16:01.541Z,950.41
2018-07-16T07:17:01.511Z,950.43
2018-07-16T07:18:01.565Z,950.39
2018-07-16T07:19:01.497Z,950.41
2018-07-16T07:20:01.661Z,950.42
2018-07-16T07:21:01.467Z,950.41
2018-07-16T07:22:01.467Z,950.35
2018-07-16T07:23:01.451Z,950.35
2018-07-16T07:24:10.966Z,950.36
2018-07-16T07:25:01.521Z,950.35
2018-07-16T07:26:01.468Z,950.34
2018-07-16T07:27:01.458Z,950.31
2018-07-16T07:28:01.448Z,950.35
2018-07-16T07:29:01.516Z,950.32
2018-07-16T07:30:01.502Z,950.32
2018-07-16T07:31:01.980Z,950.33
2018-07-16T07:32:01.359Z,950.33
2018-07-16T07:33:01.335Z,950.31
2018-07-16T07:34:01.324Z,950.34
2018-07-16T07:35:01.405Z,950.31
2018-07-16T07:36:01.322Z,950.37
2018-07-16T07:37:01.286Z,950.34
2018-07-16T07:38:01.990Z,950.31
2018-07-16T07:39:01.280Z,950.29
2018-07-16T07:40:01.257Z,950.23
2018-07-16T07:41:01.269Z,950.26
2018-07-16T07:42:01.233Z,950.27
2018-07-16T07:43:01.223Z,950.25
2018-07-16T07:44:01.214Z,950.24
2018-07-16T07:45:01.224Z,950.22
2018-07-16T07:46:01.214Z,950.26
2018-07-16T07:47:01.182Z,950.27
2018-07-16T07:48:01.171Z,950.24
2018-07-16T07:49:01.157Z,950.23
2018-07-16T07:50:01.153Z,950.26
2018-07-16T07:51:01.153Z,950.23
2018-07-16T07:52:01.130Z,950.28
2018-07-16T07:53:01.111Z,950.28
2018-07-16T07:54:01.100Z,950.28
2018-07-16T07:55:01.640Z,950.28
2018-07-16T07:56:01.083Z,950.31
2018-07-16T07:57:01.125Z,950.33
2018-07-16T07:58:01.048Z,950.34
2018-07-16T07:59:01.050Z,950.36
2018-07-16T08:00:01.040Z,950.38
2018-07-16T08:01:01.026Z,950.38
2018-07-16T08:02:01.011Z,950.35
2018-07-16T08:03:01.034Z,950.32
2018-07-16T08:04:00.992Z,950.33
2018-07-16T08:05:00.973Z,950.37
2018-07-16T08:06:01.492Z,950.40
2018-07-16T08:07:00.955Z,950.41
2018-07-16T08:08:01.000Z,950.38
2018-07-16T08:09:00.953Z,950.38
2018-07-16T08:10:01.485Z,950.43
2018-07-16T08:11:00.915Z,950.45
2018-07-16T08:12:00.906Z,950.45
2018-07-16T08:13:00.890Z,950.43
2018-07-16T08:14:00.973Z,950.39
2018-07-16T08:15:00.971Z,950.42
2018-07-16T08:16:00.857Z,950.38
2018-07-16T08:17:00.847Z,950.41
2018-07-16T08:18:00.834Z,950.40
2018-07-16T08:19:00.825Z,950.36
2018-07-16T08:20:00.875Z,950.44
2018-07-16T08:21:00.865Z,950.40
2018-07-16T08:22:00.807Z,950.41
2018-07-16T08:23:00.815Z,950.38
2018-07-16T08:24:00.777Z,950.44
2018-07-16T08:25:00.766Z,950.47
2018-07-16T08:26:00.777Z,950.49
2018-07-16T08:27:00.737Z,950.44
2018-07-16T08:28:00.787Z,950.45
2018-07-16T08:29:00.718Z,950.42
2018-07-16T08:30:00.698Z,950.46
2018-07-16T08:31:00.719Z,950.47
2018-07-16T08:32:00.701Z,950.43
2018-07-16T08:33:00.671Z,950.43
2018-07-16T08:34:00.660Z,950.43
2018-07-16T08:35:00.644Z,950.47
2018-07-16T08:36:00.635Z,950.47
2018-07-16T08:37:00.640Z,950.47
2018-07-16T08:38:00.633Z,950.52
2018-07-16T08:39:00.703Z,950.47
2018-07-16T08:40:00.595Z,950.51
2018-07-16T08:41:00.584Z,950.50
2018-07-16T08:42:00.622Z,950.51
2018-07-16T08:43:00.555Z,950.53
2018-07-16T08:44:00.559Z,950.48
2018-07-16T08:45:00.538Z,950.49
2018-07-16T08:46:00.535Z,950.52
2018-07-16T08:47:00.512Z,950.53
2018-07-16T08:48:00.511Z,950.53
2018-07-16T08:49:00.489Z,950.53
2018-07-16T08:50:00.495Z,950.53
2018-07-16T08:51:00.473Z,950.57
2018-07-16T08:52:00.522Z,950.54
2018-07-16T08:53:00.477Z,950.53
2018-07-16T08:54:00.440Z,950.57
2018-07-16T08:55:00.439Z,950.55
2018-07-16T08:56:00.416Z,950.59
2018-07-16T08:57:00.400Z,950.55
2018-07-16T08:58:00.387Z,950.58
2018-07-16T08:59:00.412Z,950.54
2018-07-16T09:00:00.367Z,950.54
2018-07-16T09:01:00.378Z,950.53
2018-07-16T09:02:00.354Z,950.53
2018-07-16T09:03:00.338Z,950.52
2018-07-16T09:04:00.405Z,950.53
2018-07-16T09:05:00.313Z,950.49
2018-07-16T09:06:00.305Z,950.49
2018-07-16T09:07:00.341Z,950.50
2018-07-16T09:08:00.286Z,950.46
2018-07-16T09:09:00.268Z,950.50
2018-07-16T09:10:00.269Z,950.49
2018-07-16T09:11:00.379Z,950.45
2018-07-16T09:12:00.238Z,950.48
2018-07-16T09:13:00.245Z,950.49
2018-07-16T09:14:00.212Z,950.51
2018-07-16T09:15:00.235Z,950.53
2018-07-16T09:16:00.203Z,950.51
2018-07-16T09:17:00.279Z,950.53
2018-07-16T09:18:00.171Z,950.55
2018-07-16T09:19:00.176Z,950.53
2018-07-16T09:20:00.143Z,950.54
2018-07-16T09:21:00.146Z,950.52
2018-07-16T09:22:00.124Z,950.54
2018-07-16T09:23:00.112Z,950.59
2018-07-16T09:24:00.099Z,950.55
2018-07-16T09:25:00.103Z,950.55
2018-07-16T09:26:00.100Z,950.57
2018-07-16T09:27:00.064Z,950.60
2018-07-16T09:28:00.058Z,950.58
2018-07-16T09:29:00.048Z,950.57
2018-07-16T09:30:00.040Z,950.51
2018-07-16T09:31:00.053Z,950.54
2018-07-16T09:32:00.024Z,950.55
2018-07-16T09:32:59.997Z,950.53
2018-07-16T09:33:59.983Z,950.53
2018-07-16T09:34:59.977Z,950.54
2018-07-16T09:35:59.963Z,950.52
2018-07-16T09:36:59.967Z,950.55
2018-07-16T09:37:59.985Z,950.53
2018-07-16T09:38:59.939Z,950.56
2018-07-16T09:39:59.924Z,950.50
2018-07-16T09:40:59.910Z,950.50
2018-07-16T09:41:59.902Z,950.49
2018-07-16T09:42:59.904Z,950.49
2018-07-16T09:43:59.899Z,950.50
2018-07-16T09:44:59.866Z,950.48
2018-07-16T09:45:59.859Z,950.46
2018-07-16T09:46:59.849Z,950.48
2018-07-16T09:47:59.834Z,950.48
2018-07-16T09:48:59.865Z,950.48
2018-07-16T09:49:59.814Z,950.46
2018-07-16T09:50:59.797Z,950.49
2018-07-16T09:51:59.790Z,950.46
2018-07-16T09:52:59.780Z,950.47
2018-07-16T09:53:59.769Z,950.47
2018-07-16T09:54:59.787Z,950.47
2018-07-16T09:55:59.755Z,950.51
2018-07-16T09:56:59.738Z,950.43
2018-07-16T09:57:59.723Z,950.45
2018-07-16T09:58:59.721Z,950.47
2018-07-16T09:59:59.736Z,950.41
2018-07-16T10:00:59.702Z,950.43
2018-07-16T10:01:59.680Z,950.42
2018-07-16T10:02:59.670Z,950.41
2018-07-16T10:03:59.658Z,950.41
2018-07-16T10:04:59.655Z,950.39
2018-07-16T10:05:59.655Z,950.41
2018-07-16T10:06:59.641Z,950.42
2018-07-16T10:07:59.609Z,950.42
2018-07-16T10:08:59.608Z,950.42
2018-07-16T10:09:59.596Z,950.41
2018-07-16T10:10:59.596Z,950.38
2018-07-16T10:11:59.574Z,950.40
2018-07-16T10:12:59.584Z,950.38
2018-07-16T10:13:59.548Z,950.34
2018-07-16T10:14:59.544Z,950.40
2018-07-16T10:15:59.568Z,950.39
2018-07-16T10:16:59.527Z,950.29
2018-07-16T10:17:59.511Z,950.31
2018-07-16T10:18:59.536Z,950.33
2018-07-16T10:19:59.496Z,950.32
2018-07-16T10:20:59.482Z,950.32
2018-07-16T10:22:00.543Z,950.31
2018-07-16T10:22:59.459Z,950.32
2018-07-16T10:23:59.456Z,950.35
2018-07-16T10:24:59.447Z,950.35
2018-07-16T10:25:59.438Z,950.31
2018-07-16T10:26:59.462Z,950.33
2018-07-16T10:27:59.402Z,950.36
2018-07-16T10:28:59.391Z,950.29
2018-07-16T10:29:59.390Z,950.27
2018-07-16T10:30:59.369Z,950.28
2018-07-16T10:31:59.360Z,950.23
2018-07-16T10:32:59.364Z,950.19
2018-07-16T10:33:59.410Z,950.21
2018-07-16T10:34:59.328Z,950.22
2018-07-16T10:35:59.323Z,950.20
2018-07-16T10:36:59.303Z,950.15
2018-07-16T10:37:59.310Z,950.18
2018-07-16T10:38:59.289Z,950.17
2018-07-16T10:39:59.273Z,950.19
2018-07-16T10:40:59.250Z,950.16
2018-07-16T10:41:59.259Z,950.17
2018-07-16T10:42:59.267Z,950.19
2018-07-16T10:43:59.223Z,950.17
2018-07-16T10:44:59.216Z,950.15
2018-07-16T10:45:59.199Z,950.17
2018-07-16T10:46:59.192Z,950.12
2018-07-16T10:47:59.191Z,950.10
2018-07-16T10:48:59.177Z,950.13
2018-07-16T10:49:59.157Z,950.09
2018-07-16T10:50:59.147Z,950.05
2018-07-16T10:51:59.133Z,950.02
2018-07-16T10:52:59.131Z,950.06
2018-07-16T10:53:59.143Z,950.01
2018-07-16T10:54:59.102Z,950.02
2018-07-16T10:55:59.095Z,950.04
2018-07-16T10:56:59.080Z,950.00
2018-07-16T10:57:59.067Z,949.98
2018-07-16T10:58:59.055Z,949.97
2018-07-16T10:59:59.096Z,949.98
2018-07-16T11:00:59.035Z,949.94
2018-07-16T11:01:59.046Z,949.95
2018-07-16T11:02:59.055Z,949.95
2018-07-16T11:03:59.008Z,949.92
2018-07-16T11:04:58.990Z,949.88
2018-07-16T11:05:59.005Z,949.87
2018-07-16T11:06:58.968Z,949.86
2018-07-16T11:07:58.959Z,949.87
2018-07-16T11:08:59.520Z,949.85
2018-07-16T11:09:58.933Z,949.84
2018-07-16T11:10:58.952Z,949.89
2018-07-16T11:11:58.929Z,949.85
2018-07-16T11:12:58.905Z,949.77
2018-07-16T11:13:58.906Z,949.81
2018-07-16T11:14:58.892Z,949.76
2018-07-16T11:15:58.866Z,949.79
2018-07-16T11:16:58.884Z,949.77
2018-07-16T11:17:58.878Z,949.77
2018-07-16T11:18:58.840Z,949.78
2018-07-16T11:19:58.843Z,949.69
2018-07-16T11:20:58.916Z,949.72
2018-07-16T11:21:58.859Z,949.72
2018-07-16T11:22:58.823Z,949.72
2018-07-16T11:23:58.798Z,949.68
2018-07-16T11:24:58.809Z,949.72
2018-07-16T11:25:58.780Z,949.69
2018-07-16T11:26:58.800Z,949.65
2018-07-16T11:27:58.772Z,949.70
2018-07-16T11:28:58.736Z,949.63
2018-07-16T11:29:58.727Z,949.64
2018-07-16T11:30:58.716Z,949.65
2018-07-16T11:31:58.714Z,949.64
2018-07-16T11:32:58.756Z,949.63
2018-07-16T11:33:58.685Z,949.61
2018-07-16T11:34:58.681Z,949.60
2018-07-16T11:35:58.659Z,949.64
2018-07-16T11:36:58.661Z,949.62
2018-07-16T11:37:58.652Z,949.60
2018-07-16T11:38:58.663Z,949.65
2018-07-16T11:39:58.643Z,949.63
2018-07-16T11:40:58.618Z,949.62
2018-07-16T11:41:58.629Z,949.62
2018-07-16T11:42:58.601Z,949.62
2018-07-16T11:43:58.625Z,949.69
2018-07-16T11:44:58.595Z,949.65
2018-07-16T11:45:58.590Z,949.62
2018-07-16T11:46:58.542Z,949.58
2018-07-16T11:47:58.529Z,949.57
2018-07-16T11:48:58.581Z,949.56
2018-07-16T11:49:58.544Z,949.59
2018-07-16T11:50:58.503Z,949.57
2018-07-16T11:51:58.498Z,949.60
2018-07-16T11:52:58.485Z,949.57
2018-07-16T11:53:58.494Z,949.60
2018-07-16T11:54:58.465Z,949.56
2018-07-16T11:55:58.501Z,949.58
2018-07-16T11:56:58.445Z,949.52
2018-07-16T11:57:58.448Z,949.54
2018-07-16T11:58:58.447Z,949.54
2018-07-16T11:59:58.407Z,949.54
2018-07-16T12:00:58.453Z,949.55
2018-07-16T12:01:58.480Z,949.57
2018-07-16T12:02:58.380Z,949.56
2018-07-16T12:03:58.381Z,949.53
2018-07-16T12:04:58.352Z,949.51
2018-07-16T12:05:58.336Z,949.48
2018-07-16T12:06:58.373Z,949.52
2018-07-16T12:07:58.321Z,949.53
2018-07-16T12:08:58.311Z,949.53
2018-07-16T12:09:58.356Z,949.50
2018-07-16T12:10:58.296Z,949.49
2018-07-16T12:11:58.326Z,949.51
2018-07-16T12:12:58.273Z,949.51
2018-07-16T12:13:58.262Z,949.50
2018-07-16T12:14:58.257Z,949.42
2018-07-16T12:15:58.252Z,949.49
2018-07-16T12:16:58.224Z,949.46
2018-07-16T12:17:58.234Z,949.42
2018-07-16T12:18:58.236Z,949.43
2018-07-16T12:19:58.219Z,949.46
2018-07-16T12:20:58.198Z,949.42
2018-07-16T12:21:58.168Z,949.42
2018-07-16T12:22:58.215Z,949.39
2018-07-16T12:23:58.153Z,949.29
2018-07-16T12:24:58.182Z,949.31
2018-07-16T12:25:58.268Z,949.35
2018-07-16T12:26:58.124Z,949.35
2018-07-16T12:27:58.131Z,949.27